Track Вестфальская Настя

Time Latitude Longitude Accuracy (66% radius in meters) Altitude (meters) Speed (km/hour) Bearing (degrees) Battery (%) GPS flag
07:47:05 57.204663 60.122223 49 340 1.0900000333786 56 46 1 delete
07:46:58 57.204658 60.122207 55 348 1.5199999809265 35 46 1 delete
08:46:55 57.204751 60.121980 18 324 0.26999998092651 195.10000610352 46 0 delete
08:46:44 57.204751 60.121980 18 324 0.26999998092651 195.10000610352 46 0 delete
07:46:32 57.204775 60.121988 25 324 0 0 46 1 delete
07:46:26 57.204751 60.121980 18 324 0.26999998092651 195.10000610352 46 1 delete
07:46:23 57.204758 60.121914 20 323 0 0 46 1 delete
07:46:13 57.204758 60.121914 16 323 0 0 46 1 delete
07:46:02 57.204770 60.121879 19 323 0 0 46 1 delete
07:45:52 57.204775 60.121877 18 323 0.099999994039536 195.10000610352 46 1 delete
07:45:42 57.204781 60.121890 16 321 0 0 46 1 delete
07:45:32 57.204781 60.121890 19 321 0 0 46 1 delete
07:45:21 57.204787 60.121830 20 321 0 0 46 1 delete
07:45:11 57.204797 60.121763 19 320 0.0099999997764826 282.79998779297 46 1 delete
07:45:00 57.204811 60.121706 20 319 0 0 46 1 delete
07:44:50 57.204777 60.121778 22 320 0 0 46 1 delete
07:44:39 57.204749 60.121826 23 320 0.42999997735023 253.69999694824 46 1 delete
07:44:29 57.204740 60.121864 21 319 0 0 46 1 delete
07:44:18 57.204756 60.121781 24 320 0 0 46 1 delete
07:44:08 57.204756 60.121781 19 320 0 0 46 1 delete
07:43:58 57.204756 60.121781 27 320 0 0 46 1 delete
07:43:55 57.204756 60.121781 25 320 0 0 46 1 delete
07:43:48 57.204754 60.121696 30 316 0.049999997019768 253.69999694824 46 1 delete
07:43:35 57.204784 60.121506 43 317 0.5799999833107 252.80000305176 46 1 delete
07:43:25 57.204754 60.121636 56 312 5.8299999237061 276 46 1 delete
08:43:17 57.204928 60.118788 50 307 0 0 46 0 delete
08:43:07 57.204928 60.118788 50 307 0 0 46 0 delete
08:42:56 57.204928 60.118788 50 307 0 0 46 0 delete
08:42:46 57.204928 60.118788 50 307 0 0 46 0 delete
08:42:36 57.204928 60.118788 50 307 0 0 46 0 delete
08:42:25 57.204928 60.118788 50 307 0 0 46 0 delete
08:42:15 57.204928 60.118788 50 307 0 0 46 0 delete
08:42:04 57.204928 60.118788 50 307 0 0 46 0 delete
08:41:54 57.204928 60.118788 50 307 0 0 46 0 delete
08:41:43 57.204928 60.118788 50 307 0 0 46 0 delete
08:41:33 57.204928 60.118788 50 307 0 0 46 0 delete
08:41:22 57.204928 60.118788 50 307 0 0 46 0 delete
07:41:02 57.204928 60.118788 50 307 0 0 46 1 delete
08:41:01 57.202700 60.127272 66 725 1.5099999904633 113.80000305176 46 0 delete
08:40:51 57.202700 60.127272 66 725 1.5099999904633 113.80000305176 46 0 delete
08:40:41 57.202700 60.127272 66 725 1.5099999904633 113.80000305176 46 0 delete
08:40:30 57.202700 60.127272 66 725 1.5099999904633 113.80000305176 46 0 delete
08:40:20 57.202700 60.127272 66 725 1.5099999904633 113.80000305176 46 0 delete
08:40:09 57.202700 60.127272 66 725 1.5099999904633 113.80000305176 46 0 delete
08:39:59 57.202700 60.127272 66 725 1.5099999904633 113.80000305176 46 0 delete
08:39:49 57.202700 60.127272 66 725 1.5099999904633 113.80000305176 46 0 delete
08:39:38 57.202700 60.127272 66 725 1.5099999904633 113.80000305176 46 0 delete
08:39:28 57.202700 60.127272 66 725 1.5099999904633 113.80000305176 46 0 delete
08:39:18 57.202700 60.127272 66 725 1.5099999904633 113.80000305176 46 0 delete
08:39:07 57.202700 60.127272 66 725 1.5099999904633 113.80000305176 46 0 delete